CW6395 Weather Reports


Display with metric or nautical units.
time (UTC)temp
F
wind
direction
speed
MPH
gust
MPH
rain 1hr
in
rain 24hr
in
rain mn
in
humidity
%
barometer
mb
20221209170155 53 23 8.0 14.0 0.00 0.00 0.00 69 1022.3
20221209164515 52 338 10.0 18.0 0.00 0.00 0.00 71 1022.5
20221209163114 52 338 12.0 18.0 0.00 0.00 0.00 71 1022.6
20221209161518 52 338 11.0 18.0 0.00 0.00 0.00 70 1022.7
20221209160017 52 23 10.0 16.0 0.00 0.00 0.00 73 1022.8
20221209154517 52 23 8.0 18.0 0.00 0.00 0.00 71 1023.0
20221209153054 51 338 11.0 19.0 0.00 0.00 0.00 74 1023.3
20221209151517 51 23 7.0 15.0 0.00 0.00 0.00 74 1023.3
20221209150022 50 23 7.0 14.0 0.00 0.00 0.00 76 1023.3
20221209144654 49 23 8.0 13.0 0.00 0.00 0.00 77 1023.3
20221209143019 49 338 10.0 15.0 0.00 0.00 0.00 77 1023.3
20221209141555 49 338 11.0 15.0 0.00 0.00 0.00 77 1023.2
20221209140024 49 338 9.0 14.0 0.00 0.00 0.00 78 1023.2
20221209134517 49 338 10.0 18.0 0.00 0.00 0.00 79 1023.1
20221209133019 48 338 9.0 14.0 0.00 0.00 0.00 79 1023.0
20221209131550 48 338 8.0 12.0 0.00 0.00 0.00 80 1022.8
20221209130055 48 338 7.0 10.0 0.00 0.00 0.00 80 1022.7
20221209124519 48 338 6.0 10.0 0.00 0.00 0.00 81 1022.6
20221209123050 48 338 7.0 11.0 0.00 0.00 0.00 79 1022.6
20221209121519 48 338 8.0 13.0 0.00 0.00 0.00 80 1022.5
20221209120019 49 23 8.0 13.0 0.00 0.00 0.00 79 1022.5
20221209114550 49 0 9.0 15.0 0.00 0.00 0.00 79 1022.3
20221209113055 49 23 9.0 14.0 0.00 0.00 0.00 80 1022.3
20221209111539 49 0 9.0 14.0 0.00 0.00 0.00 82 1022.2
20221209110018 49 23 9.0 14.0 0.00 0.00 0.00 83 1022.0
20221209104518 50 23 9.0 14.0 0.00 0.00 0.00 84 1021.9
20221209103017 50 0 9.0 14.0 0.00 0.00 0.00 85 1021.8
20221209101539 50 23 8.0 13.0 0.00 0.00 0.00 85 1021.8
20221209100018 50 23 8.0 13.0 0.00 0.00 0.00 85 1021.7
20221209094518 50 23 7.0 12.0 0.00 0.00 0.00 85 1021.5
20221209093018 50 23 6.0 10.0 0.00 0.00 0.00 87 1021.7
20221209091518 51 338 7.0 11.0 0.00 0.00 0.00 88 1021.9
20221209090018 51 338 7.0 10.0 0.00 0.00 0.00 88 1021.9
20221209084518 51 23 7.0 11.0 0.00 0.00 0.00 88 1021.6
20221209083055 51 23 6.0 9.0 0.00 0.00 0.00 88 1021.6
20221209081516 51 338 7.0 11.0 0.00 0.00 0.00 87 1021.8
20221209080038 51 23 6.0 11.0 0.00 0.00 0.00 87 1021.9
20221209074518 51 338 7.0 12.0 0.00 0.00 0.00 87 1022.2
20221209073018 51 23 7.0 11.0 0.00 0.00 0.00 86 1022.1
20221209071517 51 23 6.0 12.0 0.00 0.00 0.00 86 1022.1
20221209070018 51 23 6.0 9.0 0.00 0.00 0.00 87 1022.0
20221209064517 51 23 4.0 10.0 0.00 0.00 0.00 87 1021.9
20221209063018 51 23 5.0 8.0 0.00 0.00 0.00 88 1021.9
20221209061518 51 0 6.0 9.0 0.00 0.00 0.00 87 1021.9
20221209060036 52 23 6.0 10.0 0.00 0.00 0.00 87 1022.0
20221209054554 52 338 7.0 10.0 0.00 0.00 0.00 87 1022.4
20221209053054 52 0 6.0 10.0 0.00 0.00 0.00 88 1022.4
20221209051554 52 338 7.0 10.0 0.00 0.00 0.00 87 1022.3
20221209050017 52 338 6.0 9.0 0.00 0.00 0.00 87 1022.2
20221209044517 52 338 5.0 9.0 0.00 0.00 0.00 88 1022.3
20221209043018 52 0 6.0 11.0 0.00 0.00 0.00 88 1022.4
20221209041517 52 338 6.0 9.0 0.00 0.00 0.00 88 1022.0
20221209040015 52 0 4.0 7.0 0.00 0.00 0.00 88 1022.2
20221209034554 52 338 4.0 7.0 0.00 0.00 0.00 88 1022.3
20221209033017 52 338 3.0 6.0 0.00 0.00 0.00 88 1021.9
20221209031517 52 23 2.0 4.0 0.00 0.00 0.00 88 1021.9
20221209030017 52 338 3.0 6.0 0.00 0.00 0.00 87 1022.2
20221209024548 52 338 3.0 7.0 0.00 0.00 0.00 87 1022.3
20221209023019 52 23 3.0 6.0 0.00 0.00 0.00 87 1022.0
20221209021519 52 0 4.0 7.0 0.00 0.00 0.00 87 1022.4
20221209020056 52 23 3.0 7.0 0.00 0.00 0.00 87 1022.2
20221209014555 53 338 4.0 7.0 0.00 0.00 0.00 87 1022.6
20221209013115 53 338 3.0 7.0 0.00 0.00 0.00 87 1022.6
20221209011519 53 338 4.0 8.0 0.00 0.00 0.00 87 1022.5
20221209010019 53 23 2.0 5.0 0.00 0.00 0.00 87 1022.1
20221209004555 53 23 3.0 8.0 0.00 0.00 0.00 87 1022.3
20221209003019 53 23 3.0 7.0 0.00 0.00 0.00 87 1022.2
20221209001550 53 23 4.0 8.0 0.00 0.00 0.00 88 1022.3
20221209000217 53 23 4.0 7.0 0.00 0.00 0.00 88 1022.4
20221208234519 53 23 6.0 10.0 0.00 0.00 0.00 88 1022.0
20221208233019 54 23 6.0 11.0 0.00 0.00 0.00 87 1021.9
20221208231610 54 23 7.0 13.0 0.00 0.00 0.00 86 1022.0
20221208230139 54 0 4.0 8.0 0.00 0.00 0.00 86 1022.2
20221208224538 54 338 2.0 5.0 0.00 0.00 0.00 86 1022.3
20221208223055 55 0.0 6.0 0.00 0.01 0.00 86 1022.0
20221208221550 55 0.0 3.0 0.00 0.03 0.00 85 1022.0
20221208220018 55 45 2.0 6.0 0.00 0.03 0.00 84 1021.9
20221208214518 55 45 1.0 5.0 0.00 0.03 0.00 84 1021.6
20221208213018 56 45 3.0 8.0 0.00 0.03 0.00 83 1021.9
20221208211518 56 68 4.0 8.0 0.00 0.03 0.00 82 1021.5
20221208210018 57 45 3.0 6.0 0.00 0.03 0.00 81 1022.0
20221208204518 57 23 4.0 9.0 0.00 0.03 0.00 79 1021.6
20221208203016 57 23 7.0 11.0 0.00 0.03 0.00 79 1022.2
20221208201518 58 23 7.0 12.0 0.00 0.03 0.00 79 1022.3
20221208200018 58 23 6.0 13.0 0.00 0.03 0.00 80 1021.8
20221208194518 58 68 6.0 10.0 0.00 0.03 0.00 80 1021.6
20221208193055 59 45 6.0 12.0 0.00 0.03 0.00 80 1021.5
20221208191549 59 68 6.0 11.0 0.00 0.03 0.00 80 1021.6
20221208190018 60 45 7.0 11.0 0.00 0.03 0.00 79 1021.6
20221208184518 60 68 7.0 12.0 0.00 0.03 0.00 79 1021.5
20221208183038 59 68 6.0 11.0 0.00 0.03 0.00 80 1021.9
20221208181518 59 45 6.0 10.0 0.00 0.03 0.00 80 1022.2
20221208180058 59 45 6.0 13.0 0.00 0.03 0.00 81 1022.3
20221208174538 59 68 6.0 13.0 0.00 0.03 0.00 80 1022.5
20221208173038 60 68 7.0 12.0 0.00 0.03 0.00 81 1022.4
20221208171614 60 68 8.0 15.0 0.00 0.03 0.00 80 1022.3